Time;durP1;ratioP1;P1;durP2;ratioP2;P2;SDS_P1;SDS_P2;PMS_P1;PMS_P2;Temp;Humidity;BMP_temperature;BMP_pressure;BME280_temperature;BME280_humidity;BME280_pressure;Samples;Min_cycle;Max_cycle;Signal;HPM_P1;HPM_P2
2022/03/01 00:00:04;;;;;;;16.23;10.97;;;4.30;79.30;;;;;;5034830;28;20045;-72
2022/03/01 00:02:30;;;;;;;16.75;10.73;;;4.30;79.40;;;;;;5017117;28;20107;-72
2022/03/01 00:04:55;;;;;;;16.50;11.03;;;4.30;79.30;;;;;;5016562;28;20041;-72
2022/03/01 00:07:21;;;;;;;15.17;11.00;;;4.30;79.50;;;;;;5034679;28;20092;-72
2022/03/01 00:09:47;;;;;;;18.00;11.70;;;4.30;79.50;;;;;;5035100;28;20049;-72
2022/03/01 00:12:12;;;;;;;16.33;11.50;;;4.30;79.30;;;;;;5034872;28;20046;-72
2022/03/01 00:14:38;;;;;;;16.63;11.17;;;4.20;79.20;;;;;;5001031;28;20042;-72
2022/03/01 00:17:04;;;;;;;14.83;10.80;;;4.20;79.30;;;;;;5017328;28;20179;-72
2022/03/01 00:19:30;;;;;;;15.80;11.02;;;4.20;79.40;;;;;;5034639;28;20049;-72
2022/03/01 00:21:57;;;;;;;14.00;10.30;;;4.20;79.30;;;;;;5016918;28;20042;-72
2022/03/01 00:24:23;;;;;;;18.25;11.48;;;4.20;79.70;;;;;;5034280;28;20516;-72
2022/03/01 00:26:49;;;;;;;14.80;10.23;;;4.30;79.70;;;;;;5034594;28;20045;-72
2022/03/01 00:29:15;;;;;;;15.37;10.63;;;4.10;79.70;;;;;;5034162;28;20490;-72
2022/03/01 00:31:41;;;;;;;15.15;10.65;;;4.10;79.80;;;;;;5016861;28;20049;-72
2022/03/01 00:34:07;;;;;;;15.07;10.17;;;4.10;79.70;;;;;;5034427;28;20478;-72
2022/03/01 00:36:33;;;;;;;16.57;10.80;;;4.10;79.90;;;;;;5033847;28;20053;-72
2022/03/01 00:38:59;;;;;;;16.40;10.27;;;4.00;79.90;;;;;;5034105;28;20053;-72
2022/03/01 00:41:24;;;;;;;15.50;10.73;;;4.10;80.10;;;;;;5033961;28;20052;-72
2022/03/01 00:43:50;;;;;;;16.47;11.10;;;4.10;79.90;;;;;;5034207;28;20367;-72
2022/03/01 00:46:17;;;;;;;18.50;11.97;;;4.00;80.10;;;;;;5033584;28;20072;-72
2022/03/01 00:48:43;;;;;;;16.52;10.38;;;4.00;80.30;;;;;;5033998;28;20128;-72
2022/03/01 00:51:09;;;;;;;17.38;11.27;;;4.00;80.50;;;;;;5016551;28;20049;-72
2022/03/01 00:53:35;;;;;;;14.67;10.30;;;4.00;80.50;;;;;;5016224;28;20527;-72
2022/03/01 00:56:04;;;;;;;16.50;10.60;;;4.00;80.10;;;;;;5034009;28;20062;-72
2022/03/01 00:58:31;;;;;;;15.77;11.80;;;3.90;80.20;;;;;;5033591;28;20049;-73
2022/03/01 01:00:57;;;;;;;16.20;10.73;;;3.90;80.50;;;;;;5034027;28;20088;-73
2022/03/01 01:03:22;;;;;;;17.33;12.00;;;4.00;80.50;;;;;;5015787;28;20127;-73
2022/03/01 01:05:48;;;;;;;14.87;10.60;;;3.90;80.80;;;;;;5033822;28;20045;-73
2022/03/01 01:08:14;;;;;;;16.13;10.63;;;3.90;80.60;;;;;;5033704;28;20053;-73
2022/03/01 01:10:40;;;;;;;16.42;11.00;;;3.90;80.60;;;;;;5033775;28;20163;-72
2022/03/01 01:13:06;;;;;;;17.40;11.10;;;3.80;80.70;;;;;;5033688;28;20564;-72
2022/03/01 01:15:32;;;;;;;17.27;11.03;;;3.80;80.50;;;;;;5033169;28;20078;-72
2022/03/01 01:17:58;;;;;;;14.82;10.75;;;3.80;80.50;;;;;;5015987;28;20053;-72
2022/03/01 01:20:24;;;;;;;17.60;11.03;;;3.70;81.00;;;;;;5033212;28;20132;-72
2022/03/01 01:22:50;;;;;;;14.23;9.97;;;3.80;81.10;;;;;;5033402;28;20044;-72
2022/03/01 01:25:21;;;;;;;17.40;10.63;;;3.70;81.00;;;;;;5015825;28;20045;-73
2022/03/01 01:27:49;;;;;;;14.05;9.68;;;3.70;81.20;;;;;;5016084;28;20045;-72
2022/03/01 01:30:18;;;;;;;14.18;10.52;;;3.60;81.20;;;;;;5032991;28;20053;-84
2022/03/01 01:32:44;;;;;;;16.20;10.95;;;3.60;81.50;;;;;;5033158;28;20068;-72
2022/03/01 01:35:12;;;;;;;16.70;11.25;;;3.60;81.50;;;;;;5015787;28;20053;-72
2022/03/01 01:37:39;;;;;;;15.55;11.25;;;3.60;82.50;;;;;;5015565;28;20133;-72
2022/03/01 01:40:08;;;;;;;16.20;11.10;;;3.60;82.90;;;;;;5033332;28;20049;-72
2022/03/01 01:42:33;;;;;;;15.70;10.60;;;3.70;83.30;;;;;;5032866;28;20037;-72
2022/03/01 01:45:00;;;;;;;17.13;11.60;;;3.60;83.60;;;;;;5033173;28;20103;-72
2022/03/01 01:47:26;;;;;;;15.43;11.68;;;3.60;84.10;;;;;;5032780;28;20061;-72
2022/03/01 01:49:52;;;;;;;15.63;11.13;;;3.60;84.40;;;;;;5015724;28;20531;-72
2022/03/01 01:52:18;;;;;;;16.93;11.40;;;3.60;84.50;;;;;;5032859;28;20063;-74
2022/03/01 01:54:44;;;;;;;18.50;12.02;;;3.60;84.80;;;;;;5015439;28;20095;-72
2022/03/01 01:57:15;;;;;;;18.73;11.00;;;3.60;84.60;;;;;;5033096;28;20440;-72
2022/03/01 01:59:41;;;;;;;15.98;11.38;;;3.60;85.30;;;;;;5032745;28;20045;-72
2022/03/01 02:02:09;;;;;;;17.20;10.57;;;3.60;84.90;;;;;;5032885;28;20041;-72
2022/03/01 02:04:35;;;;;;;15.65;10.88;;;3.60;84.70;;;;;;5032697;28;20098;-73
2022/03/01 02:07:00;;;;;;;16.37;11.17;;;3.60;84.90;;;;;;5032950;28;20132;-72
2022/03/01 02:09:26;;;;;;;16.30;11.40;;;3.60;84.70;;;;;;5033113;28;20465;-72
2022/03/01 02:11:52;;;;;;;16.60;11.03;;;3.60;84.30;;;;;;5015467;28;20053;-72
2022/03/01 02:14:17;;;;;;;16.90;11.60;;;3.70;84.70;;;;;;5032884;28;20055;-72
2022/03/01 02:16:43;;;;;;;17.13;11.43;;;3.70;84.60;;;;;;5032394;28;20041;-72
2022/03/01 02:19:12;;;;;;;18.30;11.30;;;3.60;84.00;;;;;;5033027;28;20046;-72
2022/03/01 02:22:05;;;;;;;17.52;11.98;;;3.60;84.30;;;;;;5032566;28;20147;-72
2022/03/01 02:24:31;;;;;;;18.35;11.25;;;3.70;83.70;;;;;;5028518;28;20111;-72
2022/03/01 02:26:59;;;;;;;17.93;11.10;;;3.70;84.10;;;;;;5015934;28;20433;-72
2022/03/01 02:29:25;;;;;;;16.95;11.40;;;3.70;83.50;;;;;;5018707;28;20405;-72
2022/03/01 02:31:53;;;;;;;17.50;11.45;;;3.70;83.80;;;;;;5036694;28;20559;-73
2022/03/01 02:34:19;;;;;;;14.95;10.73;;;3.70;84.00;;;;;;5036675;28;20049;-73
2022/03/01 02:36:45;;;;;;;15.27;10.55;;;3.70;84.00;;;;;;5036349;28;20436;-73
2022/03/01 02:39:12;;;;;;;18.23;11.07;;;3.80;84.20;;;;;;5036553;28;20136;-73
2022/03/01 02:41:38;;;;;;;19.92;12.55;;;3.70;83.50;;;;;;5036583;28;20401;-73
2022/03/01 02:44:05;;;;;;;18.40;11.82;;;3.70;83.70;;;;;;5019104;28;20048;-73
2022/03/01 02:46:31;;;;;;;15.73;11.00;;;3.80;84.40;;;;;;5036088;28;20474;-73
2022/03/01 02:48:57;;;;;;;17.08;11.25;;;3.80;84.30;;;;;;5036340;28;20049;-73
2022/03/01 02:51:23;;;;;;;15.83;11.10;;;3.80;83.90;;;;;;5036188;28;20041;-85
2022/03/01 02:53:48;;;;;;;15.37;11.10;;;3.80;84.10;;;;;;5036227;28;20045;-73
2022/03/01 02:56:14;;;;;;;16.00;11.40;;;3.80;83.90;;;;;;5036232;28;20093;-73
2022/03/01 02:58:40;;;;;;;17.10;11.70;;;3.80;83.90;;;;;;5035828;28;20042;-73
2022/03/01 03:01:06;;;;;;;15.32;10.32;;;3.80;84.10;;;;;;5036027;28;20486;-73
2022/03/01 03:03:32;;;;;;;17.00;11.98;;;3.80;84.00;;;;;;5018129;28;20045;-73
2022/03/01 03:05:58;;;;;;;20.80;12.33;;;3.80;84.40;;;;;;5036210;28;20049;-73
2022/03/01 03:08:24;;;;;;;18.83;11.07;;;3.80;84.50;;;;;;5036018;28;20081;-73
2022/03/01 03:10:49;;;;;;;17.73;11.70;;;3.80;83.90;;;;;;5018218;28;20389;-73
2022/03/01 03:13:15;;;;;;;16.90;11.73;;;3.90;83.90;;;;;;5035613;28;20528;-73
2022/03/01 03:15:41;;;;;;;17.13;11.00;;;3.80;83.70;;;;;;5035684;28;20081;-73
2022/03/01 03:18:06;;;;;;;17.40;11.03;;;3.90;83.80;;;;;;5035616;28;20057;-73
2022/03/01 03:20:32;;;;;;;16.53;11.90;;;3.90;83.40;;;;;;5035508;28;20095;-73
2022/03/01 03:22:58;;;;;;;18.57;11.40;;;3.90;83.50;;;;;;5036011;28;20490;-73
2022/03/01 03:25:24;;;;;;;16.07;10.87;;;3.90;83.80;;;;;;5035749;28;20095;-73
2022/03/01 03:27:49;;;;;;;16.23;10.73;;;3.90;83.50;;;;;;5001623;28;20406;-73
2022/03/01 03:30:15;;;;;;;18.57;11.07;;;3.90;83.40;;;;;;5035294;28;20049;-73
2022/03/01 03:32:41;;;;;;;17.83;11.67;;;3.90;83.30;;;;;;5017527;28;20044;-73
2022/03/01 03:35:07;;;;;;;15.07;10.60;;;3.80;83.20;;;;;;5035776;28;20057;-73
2022/03/01 03:37:33;;;;;;;14.25;10.98;;;3.80;83.60;;;;;;5035190;28;20401;-73
2022/03/01 03:39:58;;;;;;;17.83;11.33;;;3.80;83.60;;;;;;5018280;28;20045;-73
2022/03/01 03:42:24;;;;;;;18.10;11.03;;;3.80;83.80;;;;;;5017685;28;20090;-71
2022/03/01 03:44:50;;;;;;;17.17;11.90;;;3.80;83.70;;;;;;5035047;28;20064;-72
2022/03/01 03:47:15;;;;;;;14.90;10.63;;;3.80;83.90;;;;;;5017741;28;20191;-72
2022/03/01 03:49:42;;;;;;;16.43;11.07;;;3.80;83.80;;;;;;5034936;28;20057;-72
2022/03/01 03:52:08;;;;;;;18.52;11.60;;;3.70;83.60;;;;;;5035039;28;20045;-72
2022/03/01 03:54:34;;;;;;;17.17;11.57;;;3.70;83.60;;;;;;5017392;28;20046;-72
2022/03/01 03:57:07;;;;;;;17.13;10.63;;;3.80;83.90;;;;;;5017572;28;20053;-72
2022/03/01 03:59:34;;;;;;;21.30;11.57;;;3.70;83.90;;;;;;5034925;28;20147;-72
2022/03/01 04:02:04;;;;;;;20.73;12.82;;;3.70;84.00;;;;;;5034695;28;20057;-72
2022/03/01 04:04:29;;;;;;;16.20;12.27;;;3.70;84.00;;;;;;5034780;28;20086;-84
2022/03/01 04:06:55;;;;;;;16.37;10.67;;;3.80;84.20;;;;;;5034859;28;20099;-72
2022/03/01 04:09:21;;;;;;;18.07;11.50;;;3.80;84.10;;;;;;5034965;28;20132;-72
2022/03/01 04:11:47;;;;;;;14.70;11.13;;;3.70;84.30;;;;;;5016832;28;20195;-72
2022/03/01 04:14:13;;;;;;;15.80;10.83;;;3.70;84.30;;;;;;5034712;28;20049;-72
2022/03/01 04:16:42;;;;;;;19.03;11.27;;;3.70;85.00;;;;;;5034413;28;20053;-72
2022/03/01 04:19:09;;;;;;;17.05;12.00;;;3.70;84.80;;;;;;5034630;28;20059;-72
2022/03/01 04:21:35;;;;;;;14.98;11.18;;;3.70;84.80;;;;;;5034299;28;20053;-72
2022/03/01 04:24:01;;;;;;;18.88;11.05;;;3.70;84.90;;;;;;5016851;28;20100;-72
2022/03/01 04:26:27;;;;;;;17.52;11.18;;;3.80;84.80;;;;;;5034619;28;20485;-72
2022/03/01 04:28:53;;;;;;;19.27;12.07;;;3.70;84.70;;;;;;5034146;28;20046;-72
2022/03/01 04:31:19;;;;;;;18.30;12.57;;;3.70;85.00;;;;;;5034441;28;20053;-72
2022/03/01 04:33:45;;;;;;;16.03;10.63;;;3.80;84.90;;;;;;5034053;28;20107;-72
2022/03/01 04:36:10;;;;;;;18.53;11.70;;;3.80;84.90;;;;;;5016762;28;20053;-72
2022/03/01 04:38:37;;;;;;;16.50;11.67;;;3.80;84.80;;;;;;5033924;28;20490;-72
2022/03/01 04:41:03;;;;;;;19.52;12.85;;;3.70;84.80;;;;;;5034190;28;20095;-72
2022/03/01 04:43:29;;;;;;;18.50;12.43;;;3.70;85.70;;;;;;5033845;28;20088;-72
2022/03/01 04:45:55;;;;;;;17.30;11.70;;;3.70;85.30;;;;;;5033746;28;20100;-72
2022/03/01 04:48:20;;;;;;;19.63;12.13;;;3.70;85.20;;;;;;5034087;28;20490;-72
2022/03/01 04:50:46;;;;;;;19.23;11.50;;;3.80;85.50;;;;;;5033277;28;20049;-72
2022/03/01 04:53:12;;;;;;;19.13;12.33;;;3.70;85.40;;;;;;5034000;28;20049;-72
2022/03/01 04:55:38;;;;;;;18.38;11.38;;;3.70;85.70;;;;;;5033713;28;20049;-72
2022/03/01 04:58:04;;;;;;;16.67;11.90;;;3.80;85.70;;;;;;5033917;28;20037;-72
2022/03/01 05:00:29;;;;;;;17.93;11.80;;;3.70;85.50;;;;;;5016471;28;20046;-72
2022/03/01 05:02:55;;;;;;;16.47;11.93;;;3.80;86.00;;;;;;5033408;28;20041;-72
2022/03/01 05:05:21;;;;;;;19.88;12.90;;;3.80;85.80;;;;;;5033850;28;20064;-72
2022/03/01 05:07:48;;;;;;;17.80;11.87;;;3.70;86.30;;;;;;5033552;28;20490;-72
2022/03/01 05:10:19;;;;;;;15.38;11.27;;;3.80;86.10;;;;;;5033818;28;20136;-72
2022/03/01 05:12:51;;;;;;;16.48;12.13;;;3.70;86.50;;;;;;5033806;28;20367;-72
2022/03/01 05:15:17;;;;;;;16.50;11.60;;;3.80;86.30;;;;;;5016354;28;20132;-72
2022/03/01 05:17:43;;;;;;;17.55;12.05;;;3.70;86.20;;;;;;5015662;28;20056;-72
2022/03/01 05:20:10;;;;;;;20.10;12.18;;;3.70;86.20;;;;;;5033608;28;20445;-72
2022/03/01 05:22:37;;;;;;;17.55;11.30;;;3.70;86.20;;;;;;5033431;28;20371;-72
2022/03/01 05:25:10;;;;;;;18.00;12.02;;;3.70;86.20;;;;;;5033515;28;20045;-72
2022/03/01 05:27:37;;;;;;;18.42;12.57;;;3.70;86.30;;;;;;5033675;28;20175;-72
2022/03/01 05:30:05;;;;;;;18.00;12.70;;;3.70;86.30;;;;;;5033070;28;20505;-72
2022/03/01 05:32:36;;;;;;;17.48;12.43;;;3.70;85.60;;;;;;5033417;28;20069;-72
2022/03/01 05:35:03;;;;;;;16.67;11.75;;;3.70;86.00;;;;;;5033061;28;20053;-72
2022/03/01 05:37:29;;;;;;;19.13;12.05;;;3.80;86.10;;;;;;5033297;28;20049;-72
2022/03/01 05:39:55;;;;;;;16.77;11.70;;;3.70;86.30;;;;;;5032822;28;20099;-72
2022/03/01 05:42:20;;;;;;;18.37;11.87;;;3.80;86.40;;;;;;5015742;28;20098;-72
2022/03/01 05:44:46;;;;;;;19.90;13.57;;;3.80;86.10;;;;;;5015432;28;20049;-72
2022/03/01 05:47:12;;;;;;;16.50;12.27;;;3.80;86.80;;;;;;5015295;28;20444;-72
2022/03/01 05:49:38;;;;;;;18.00;11.97;;;3.70;86.30;;;;;;5033173;28;20064;-72
2022/03/01 05:52:04;;;;;;;18.17;12.23;;;3.80;86.70;;;;;;5015619;28;20041;-72
2022/03/01 05:54:30;;;;;;;16.83;10.95;;;3.80;86.60;;;;;;5033133;28;20688;-72
2022/03/01 05:56:56;;;;;;;16.50;12.30;;;3.80;86.50;;;;;;5032785;28;20133;-72
2022/03/01 05:59:21;;;;;;;18.13;12.07;;;3.80;86.60;;;;;;5033020;28;20041;-72
2022/03/01 06:01:47;;;;;;;17.23;11.23;;;3.80;86.60;;;;;;5031844;28;20129;-72
2022/03/01 06:04:13;;;;;;;17.50;12.27;;;3.80;86.40;;;;;;5033116;28;20485;-72
2022/03/01 06:06:39;;;;;;;20.93;12.37;;;3.80;86.50;;;;;;5015422;28;20095;-72
2022/03/01 06:09:04;;;;;;;17.77;11.87;;;3.80;86.60;;;;;;5032746;28;20041;-72
2022/03/01 06:11:31;;;;;;;19.73;12.17;;;3.70;86.50;;;;;;5032919;28;20053;-72
2022/03/01 06:13:57;;;;;;;17.45;12.75;;;3.70;86.60;;;;;;5032643;28;20052;-72
2022/03/01 06:16:23;;;;;;;18.23;12.40;;;3.80;86.80;;;;;;5032852;28;20393;-72
2022/03/01 06:18:48;;;;;;;19.10;12.93;;;3.80;86.60;;;;;;5015186;28;20056;-71
2022/03/01 06:21:14;;;;;;;17.60;12.13;;;3.80;86.80;;;;;;5032859;28;20045;-72
2022/03/01 06:23:40;;;;;;;19.77;12.53;;;3.80;86.70;;;;;;5032753;28;20069;-73
2022/03/01 06:26:06;;;;;;;16.80;11.17;;;3.80;86.70;;;;;;5032844;28;20088;-72
2022/03/01 06:28:32;;;;;;;17.88;12.15;;;3.80;86.70;;;;;;5032971;28;20046;-72
2022/03/01 06:30:57;;;;;;;19.67;12.57;;;3.90;86.90;;;;;;5032523;28;20136;-72
2022/03/01 06:33:23;;;;;;;19.80;11.90;;;3.90;86.90;;;;;;5032741;28;20052;-72
2022/03/01 06:35:49;;;;;;;18.87;12.03;;;4.00;87.30;;;;;;5032565;28;20106;-72
2022/03/01 06:38:15;;;;;;;17.33;12.77;;;3.90;87.00;;;;;;5032730;28;20104;-72
2022/03/01 06:40:41;;;;;;;18.92;12.80;;;4.00;86.90;;;;;;5032740;28;20139;-71
2022/03/01 06:43:07;;;;;;;17.23;12.30;;;4.00;86.90;;;;;;5014625;28;20506;-72
2022/03/01 06:45:32;;;;;;;21.87;12.67;;;4.00;86.70;;;;;;5032374;28;20128;-72
2022/03/01 06:47:58;;;;;;;17.10;12.20;;;4.00;86.70;;;;;;5014744;28;20196;-71
2022/03/01 06:50:26;;;;;;;17.40;12.23;;;4.00;86.50;;;;;;5014915;28;20050;-71
2022/03/01 06:52:52;;;;;;;19.60;12.85;;;4.10;86.70;;;;;;5032413;28;20100;-71
2022/03/01 06:55:21;;;;;;;20.98;12.75;;;4.10;86.50;;;;;;5014886;28;20048;-72
2022/03/01 06:57:47;;;;;;;17.20;11.65;;;4.10;86.40;;;;;;5032111;28;20049;-80
2022/03/01 07:00:14;;;;;;;18.40;11.95;;;4.20;86.60;;;;;;5032528;28;20080;-72
2022/03/01 07:02:41;;;;;;;18.73;12.07;;;4.20;86.50;;;;;;5032445;28;20038;-71
2022/03/01 07:05:09;;;;;;;18.00;12.20;;;4.30;86.40;;;;;;5014824;28;20143;-71
2022/03/01 07:07:35;;;;;;;18.15;11.80;;;4.30;86.30;;;;;;5032407;28;20085;-70
2022/03/01 07:10:01;;;;;;;16.95;11.82;;;4.30;86.00;;;;;;4998192;28;20064;-70
2022/03/01 07:12:27;;;;;;;18.03;12.07;;;4.30;85.50;;;;;;5032389;28;20049;-70
2022/03/01 07:14:53;;;;;;;18.23;12.77;;;4.30;86.20;;;;;;5035338;28;20050;-71
2022/03/01 07:17:19;;;;;;;17.30;13.05;;;4.30;86.00;;;;;;5018413;28;20092;-74
2022/03/01 07:19:45;;;;;;;21.05;12.88;;;4.40;85.80;;;;;;5035901;28;20495;-79
2022/03/01 07:22:11;;;;;;;19.37;12.17;;;4.40;86.20;;;;;;5017873;28;20128;-71
2022/03/01 07:24:37;;;;;;;18.10;12.80;;;4.40;86.20;;;;;;5035840;28;20049;-71
2022/03/01 07:27:03;;;;;;;17.87;12.60;;;4.40;85.40;;;;;;5035414;28;20124;-71
2022/03/01 07:29:30;;;;;;;16.02;11.90;;;4.40;85.10;;;;;;5035768;28;20473;-71
2022/03/01 07:31:58;;;;;;;17.73;12.45;;;4.50;85.20;;;;;;5018186;28;20076;-71
2022/03/01 07:34:24;;;;;;;17.92;12.25;;;4.40;84.20;;;;;;5035727;28;20072;-71
2022/03/01 07:36:49;;;;;;;17.08;12.25;;;4.50;84.90;;;;;;5018036;28;20474;-71
2022/03/01 07:39:15;;;;;;;17.53;12.97;;;4.50;85.00;;;;;;5035380;28;20056;-71
2022/03/01 07:41:41;;;;;;;16.77;12.20;;;4.50;85.00;;;;;;5035547;28;20471;-71
2022/03/01 07:44:07;;;;;;;20.47;12.47;;;4.50;85.10;;;;;;5035240;28;20229;-71
2022/03/01 07:46:33;;;;;;;17.20;12.32;;;4.50;84.60;;;;;;5035426;28;20080;-71
2022/03/01 07:48:58;;;;;;;16.90;12.30;;;4.50;85.30;;;;;;5035321;28;20057;-71
2022/03/01 07:51:24;;;;;;;17.37;12.43;;;4.60;84.70;;;;;;5035364;28;20552;-71
2022/03/01 07:53:51;;;;;;;18.37;12.67;;;4.50;84.80;;;;;;5017829;28;20041;-71
2022/03/01 07:56:20;;;;;;;16.58;12.00;;;4.60;84.80;;;;;;5035283;28;20045;-71
2022/03/01 07:58:46;;;;;;;18.67;13.20;;;4.60;85.00;;;;;;5035277;28;20072;-71
2022/03/01 08:01:12;;;;;;;18.17;12.98;;;4.60;85.10;;;;;;5035024;28;20056;-71
2022/03/01 08:03:38;;;;;;;17.20;12.20;;;4.60;84.30;;;;;;5035087;28;20128;-71
2022/03/01 08:06:04;;;;;;;17.43;11.50;;;4.70;84.60;;;;;;5034961;28;20068;-72
2022/03/01 08:08:30;;;;;;;18.67;12.32;;;4.70;84.30;;;;;;5035098;28;20056;-71
2022/03/01 08:10:56;;;;;;;18.80;12.13;;;4.80;84.40;;;;;;5017400;28;20045;-72
2022/03/01 08:13:22;;;;;;;18.03;12.23;;;4.90;84.50;;;;;;5034938;28;20041;-71
2022/03/01 08:15:47;;;;;;;15.50;11.37;;;4.90;84.50;;;;;;5034989;28;20049;-71
2022/03/01 08:18:13;;;;;;;16.80;11.83;;;5.00;83.80;;;;;;5034690;28;20133;-72
2022/03/01 08:20:39;;;;;;;16.80;11.83;;;4.90;84.00;;;;;;5017203;28;20045;-71
2022/03/01 08:23:05;;;;;;;17.35;11.57;;;5.10;83.60;;;;;;5034532;28;20045;-71
2022/03/01 08:25:31;;;;;;;17.73;12.90;;;5.20;83.90;;;;;;5034162;28;20041;-71
2022/03/01 08:27:58;;;;;;;18.05;13.23;;;5.30;83.80;;;;;;5034534;28;20091;-72
2022/03/01 08:30:24;;;;;;;18.42;13.13;;;5.30;82.90;;;;;;5034641;28;20056;-72
2022/03/01 08:32:50;;;;;;;18.60;12.95;;;;;;;;;;5034730;28;20046;-71
2022/03/01 08:35:16;;;;;;;16.60;12.40;;;5.40;81.70;;;;;;5034169;28;20414;-71
2022/03/01 08:37:42;;;;;;;17.53;11.97;;;5.50;82.20;;;;;;5034469;28;20057;-71
2022/03/01 08:40:08;;;;;;;16.47;11.93;;;5.50;81.30;;;;;;5016659;28;20081;-72
2022/03/01 08:42:34;;;;;;;16.05;11.82;;;;;;;;;;5034337;28;20048;-71
2022/03/01 08:45:00;;;;;;;19.02;13.25;;;6.00;88.60;;;;;;5034234;28;20111;-72
2022/03/01 08:47:27;;;;;;;20.42;13.35;;;5.80;88.00;;;;;;5034570;28;20137;-72
2022/03/01 08:49:53;;;;;;;19.37;13.33;;;5.80;81.30;;;;;;5034276;28;20575;-71
2022/03/01 08:52:19;;;;;;;18.73;13.15;;;5.80;80.80;;;;;;5034004;28;20038;-71
2022/03/01 08:54:45;;;;;;;16.38;12.65;;;5.80;80.30;;;;;;5034153;28;20045;-71
2022/03/01 08:57:12;;;;;;;18.10;12.47;;;5.80;80.40;;;;;;5033890;28;20091;-72
2022/03/01 08:59:37;;;;;;;19.45;12.50;;;5.80;80.20;;;;;;5034110;28;20417;-72
2022/03/01 09:02:04;;;;;;;17.80;12.07;;;;;;;;;;5033781;28;20076;-72
2022/03/01 09:04:30;;;;;;;18.77;12.27;;;;;;;;;;5034023;28;20103;-72
2022/03/01 09:06:56;;;;;;;18.92;13.07;;;;;;;;;;5033979;28;20477;-72
2022/03/01 09:09:22;;;;;;;23.17;13.40;;;;;;;;;;5033836;28;20457;-72
2022/03/01 09:11:48;;;;;;;19.63;12.85;;;;;;;;;;5033969;28;20099;-71
2022/03/01 09:14:14;;;;;;;23.02;15.75;;;;;;;;;;5033783;28;20398;-70
2022/03/01 09:16:40;;;;;;;18.58;12.43;;;;;;;;;;5033894;28;20055;-72
2022/03/01 09:19:10;;;;;;;19.52;13.77;;;;;;;;;;5033871;28;20051;-72
2022/03/01 09:21:36;;;;;;;19.77;13.68;;;;;;;;;;5033835;28;20053;-72
2022/03/01 09:24:02;;;;;;;17.27;12.73;;;;;;;;;;5033357;28;20053;-73
2022/03/01 09:26:28;;;;;;;21.65;13.80;;;;;;;;;;5033678;28;20111;-72
2022/03/01 09:28:54;;;;;;;18.85;14.38;;;;;;;;;;5033629;28;20050;-71
2022/03/01 09:31:20;;;;;;;22.00;13.75;;;;;;;;;;5015756;28;20049;-72
2022/03/01 09:33:46;;;;;;;16.65;13.13;;;6.40;86.40;;;;;;5033596;28;20075;-71
2022/03/01 09:36:13;;;;;;;17.58;13.18;;;6.30;78.80;;;;;;5033252;28;20394;-71
2022/03/01 09:38:40;;;;;;;19.17;13.45;;;;;;;;;;5033539;28;20048;-72
2022/03/01 09:41:05;;;;;;;19.45;13.63;;;6.40;77.80;;;;;;5033457;28;20041;-72
2022/03/01 09:43:36;;;;;;;16.70;13.13;;;6.50;78.70;;;;;;5016040;28;20427;-71
2022/03/01 09:46:02;;;;;;;19.35;12.65;;;6.60;96.20;;;;;;5033248;28;20060;-71
2022/03/01 09:48:28;;;;;;;18.33;13.55;;;6.60;78.10;;;;;;5033395;28;20053;-72
2022/03/01 09:50:54;;;;;;;18.17;12.77;;;6.70;77.90;;;;;;5033488;28;20056;-71
2022/03/01 09:53:21;;;;;;;19.15;12.27;;;6.80;77.60;;;;;;5033123;28;20390;-72
2022/03/01 09:55:46;;;;;;;20.20;13.27;;;6.80;77.70;;;;;;5033295;28;20103;-72
2022/03/01 09:58:14;;;;;;;16.93;12.53;;;7.00;77.50;;;;;;5033023;28;20452;-72
2022/03/01 10:00:39;;;;;;;18.75;13.02;;;7.10;76.60;;;;;;5033395;28;20080;-72
2022/03/01 10:03:07;;;;;;;16.93;12.53;;;7.20;77.00;;;;;;5033053;28;20081;-73
2022/03/01 10:05:39;;;;;;;17.42;12.25;;;7.30;75.80;;;;;;5033197;28;20049;-72
2022/03/01 10:08:08;;;;;;;18.10;13.13;;;7.40;75.90;;;;;;5033018;28;20397;-78
2022/03/01 10:10:48;;;;;;;18.58;13.57;;;7.50;76.10;;;;;;5015653;28;20045;-72
2022/03/01 10:13:20;;;;;;;17.73;12.48;;;7.60;75.10;;;;;;5032840;28;20482;-72
2022/03/01 10:15:47;;;;;;;19.33;13.50;;;7.60;75.30;;;;;;5015812;28;20049;-72
2022/03/01 10:18:15;;;;;;;19.38;14.18;;;7.50;75.00;;;;;;5032818;28;20057;-72
2022/03/01 10:20:44;;;;;;;20.60;13.23;;;7.50;74.60;;;;;;5032971;28;20041;-71
2022/03/01 10:23:12;;;;;;;18.38;14.15;;;7.40;75.40;;;;;;5032826;28;20091;-72
2022/03/01 10:25:39;;;;;;;18.73;14.10;;;7.40;75.60;;;;;;5032859;28;20482;-71
2022/03/01 10:28:06;;;;;;;19.73;13.90;;;7.40;75.70;;;;;;5032987;28;20092;-71
2022/03/01 10:30:34;;;;;;;21.70;14.35;;;7.50;75.70;;;;;;5033279;28;20073;-72
2022/03/01 10:33:15;;;;;;;22.35;14.60;;;7.50;75.70;;;;;;5032990;28;20042;-72
2022/03/01 10:35:43;;;;;;;17.70;13.07;;;7.50;75.30;;;;;;5033196;28;20077;-72
2022/03/01 10:38:10;;;;;;;18.58;14.00;;;7.50;75.40;;;;;;5032639;28;20048;-73
2022/03/01 10:40:38;;;;;;;19.42;14.57;;;7.50;75.10;;;;;;5032749;28;20055;-71
2022/03/01 10:43:12;;;;;;;23.08;15.00;;;7.50;74.70;;;;;;5032839;28;20452;-71
2022/03/01 10:45:41;;;;;;;21.13;13.98;;;7.50;75.10;;;;;;5032745;28;20080;-72
2022/03/01 10:48:09;;;;;;;19.75;14.07;;;7.50;75.00;;;;;;5033196;28;20061;-72
2022/03/01 10:50:36;;;;;;;21.17;15.00;;;7.50;74.80;;;;;;5036724;28;20049;-72
2022/03/01 10:53:02;;;;;;;19.77;14.45;;;7.50;75.00;;;;;;5036495;28;20045;-72
2022/03/01 10:55:30;;;;;;;20.00;13.80;;;7.60;74.80;;;;;;5036254;28;20053;-72
2022/03/01 10:58:02;;;;;;;19.73;13.88;;;7.60;74.40;;;;;;5036431;28;20045;-71
2022/03/01 11:00:29;;;;;;;21.35;14.95;;;7.70;86.90;;;;;;5035851;28;20510;-72
2022/03/01 11:02:55;;;;;;;20.98;14.68;;;7.70;92.30;;;;;;5036255;28;20072;-72
2022/03/01 11:05:21;;;;;;;21.00;14.90;;;7.80;92.50;;;;;;5036037;28;20084;-72
2022/03/01 11:07:49;;;;;;;20.42;14.25;;;7.70;98.40;;;;;;5036483;28;20049;-72
2022/03/01 11:10:17;;;;;;;20.50;15.07;;;7.70;98.50;;;;;;5036138;28;20050;-72
2022/03/01 11:12:46;;;;;;;20.08;15.00;;;7.70;98.40;;;;;;5036177;28;20092;-72
2022/03/01 11:15:31;;;;;;;23.58;15.38;;;7.60;98.50;;;;;;5036008;28;20085;-79
2022/03/01 11:18:17;;;;;;;22.08;15.27;;;7.70;98.60;;;;;;5036236;28;20398;-72
2022/03/01 11:20:46;;;;;;;22.38;15.32;;;7.60;98.70;;;;;;5018455;28;20053;-72
2022/03/01 11:23:14;;;;;;;21.88;15.48;;;7.60;98.50;;;;;;5035902;28;20052;-71
2022/03/01 11:25:45;;;;;;;22.13;15.30;;;7.50;98.40;;;;;;5035869;28;20497;-71
2022/03/01 11:28:12;;;;;;;22.02;15.48;;;7.60;98.60;;;;;;5035990;28;20041;-71
2022/03/01 11:30:42;;;;;;;21.25;15.90;;;7.50;98.90;;;;;;5035817;28;20128;-72
2022/03/01 11:33:08;;;;;;;22.50;16.10;;;7.60;99.50;;;;;;5035776;28;20095;-72
2022/03/01 11:35:43;;;;;;;21.52;16.05;;;7.50;99.70;;;;;;5035499;28;20367;-72
2022/03/01 11:38:11;;;;;;;23.90;17.05;;;7.50;99.90;;;;;;5035893;28;20046;-71
2022/03/01 11:40:50;;;;;;;26.02;18.05;;;7.40;99.90;;;;;;5035441;28;20083;-72
2022/03/01 11:43:27;;;;;;;25.40;18.30;;;7.40;99.90;;;;;;5035349;28;20045;-72
2022/03/01 11:45:58;;;;;;;26.20;18.73;;;7.40;99.90;;;;;;5035283;28;20042;-72
2022/03/01 11:48:26;;;;;;;31.73;20.45;;;7.40;99.90;;;;;;5035289;28;20097;-71
2022/03/01 11:50:58;;;;;;;30.08;18.95;;;7.50;99.90;;;;;;5035430;28;20042;-71
2022/03/01 11:53:28;;;;;;;24.77;19.00;;;7.40;99.90;;;;;;5035161;28;20049;-71
2022/03/01 11:55:57;;;;;;;29.17;20.42;;;7.40;99.90;;;;;;5035394;28;20038;-71
2022/03/01 11:58:24;;;;;;;24.35;18.50;;;7.40;99.90;;;;;;5035014;28;20123;-72
2022/03/01 12:00:50;;;;;;;29.58;20.60;;;7.40;99.90;;;;;;5034157;28;20045;-71
2022/03/01 12:03:21;;;;;;;28.17;20.20;;;7.40;99.90;;;;;;5034876;28;20052;-74
2022/03/01 12:05:51;;;;;;;31.00;20.77;;;7.40;99.90;;;;;;5035107;28;20041;-72
2022/03/01 12:08:18;;;;;;;31.88;21.30;;;7.50;99.90;;;;;;5034853;28;20045;-73
2022/03/01 12:10:58;;;;;;;28.95;20.63;;;7.40;99.90;;;;;;5035050;28;20080;-71
2022/03/01 12:13:35;;;;;;;30.40;22.08;;;7.60;99.90;;;;;;5034716;28;20045;-72
2022/03/01 12:16:01;;;;;;;28.15;20.85;;;7.50;99.90;;;;;;5034626;28;20486;-71
2022/03/01 12:18:31;;;;;;;30.40;20.93;;;;;;;;;;5017114;28;20056;-71
2022/03/01 12:21:01;;;;;;;31.38;21.38;;;;;;;;;;5034527;28;20843;-71
2022/03/01 12:23:31;;;;;;;31.38;23.23;;;7.70;99.90;;;;;;5034532;28;20391;-71
2022/03/01 12:25:59;;;;;;;34.05;23.27;;;;;;;;;;5034942;28;20059;-71
2022/03/01 12:28:27;;;;;;;29.83;22.30;;;7.60;95.30;;;;;;5034526;28;20085;-72
2022/03/01 12:30:53;;;;;;;29.88;22.02;;;7.60;96.00;;;;;;5034658;28;20045;-71
2022/03/01 12:33:19;;;;;;;33.83;22.00;;;7.70;96.40;;;;;;5034472;28;20041;-72
2022/03/01 12:35:58;;;;;;;30.83;20.63;;;7.70;96.80;;;;;;5034902;28;20085;-71
2022/03/01 12:38:23;;;;;;;30.02;20.17;;;7.70;96.10;;;;;;5034168;28;20041;-71
2022/03/01 12:40:49;;;;;;;34.20;20.67;;;7.70;95.00;;;;;;5017052;28;20097;-71